sensor_id;sensor_type;location;lat;lon;timestamp;pressure;altitude;pressure_sealevel;temperature;humidity
30873;BME280;17579;42.690;2.586;2023-02-04T00:00:47;98258.56;;;14.35;16.57
30873;BME280;17579;42.690;2.586;2023-02-04T00:03:14;98257.59;;;14.36;16.58
30873;BME280;17579;42.690;2.586;2023-02-04T00:05:40;98256.75;;;14.35;16.41
30873;BME280;17579;42.690;2.586;2023-02-04T00:08:06;98250.56;;;14.35;16.53
30873;BME280;17579;42.690;2.586;2023-02-04T00:10:32;98250.56;;;14.35;16.34
30873;BME280;17579;42.690;2.586;2023-02-04T00:12:57;98245.81;;;14.38;16.39
30873;BME280;17579;42.690;2.586;2023-02-04T00:15:23;98250.31;;;14.38;16.60
30873;BME280;17579;42.690;2.586;2023-02-04T00:17:49;98251.56;;;14.34;16.74
30873;BME280;17579;42.690;2.586;2023-02-04T00:20:15;98254.50;;;14.31;16.71
30873;BME280;17579;42.690;2.586;2023-02-04T00:22:40;98260.97;;;14.28;16.68
30873;BME280;17579;42.690;2.586;2023-02-04T00:25:06;98271.75;;;14.27;17.02
30873;BME280;17579;42.690;2.586;2023-02-04T00:27:32;98277.34;;;14.24;17.01
30873;BME280;17579;42.690;2.586;2023-02-04T00:29:57;98286.63;;;14.19;17.13
30873;BME280;17579;42.690;2.586;2023-02-04T00:32:23;98292.22;;;14.16;17.60
30873;BME280;17579;42.690;2.586;2023-02-04T00:34:49;98293.66;;;14.11;17.58
30873;BME280;17579;42.690;2.586;2023-02-04T00:37:14;98296.84;;;14.04;18.02
30873;BME280;17579;42.690;2.586;2023-02-04T00:39:40;98292.94;;;13.99;17.95
30873;BME280;17579;42.690;2.586;2023-02-04T00:42:06;98295.19;;;13.94;17.92
30873;BME280;17579;42.690;2.586;2023-02-04T00:44:32;98294.75;;;13.89;18.38
30873;BME280;17579;42.690;2.586;2023-02-04T00:46:57;98296.16;;;13.83;18.75
30873;BME280;17579;42.690;2.586;2023-02-04T00:49:23;98294.63;;;13.80;18.47
30873;BME280;17579;42.690;2.586;2023-02-04T00:51:49;98303.16;;;13.74;18.53
30873;BME280;17579;42.690;2.586;2023-02-04T00:54:15;98300.94;;;13.69;18.73
30873;BME280;17579;42.690;2.586;2023-02-04T00:56:42;98297.97;;;13.63;20.08
30873;BME280;17579;42.690;2.586;2023-02-04T00:59:08;98296.13;;;13.44;21.15
30873;BME280;17579;42.690;2.586;2023-02-04T01:01:33;98295.78;;;13.27;21.61
30873;BME280;17579;42.690;2.586;2023-02-04T01:03:59;98295.47;;;13.11;22.06
30873;BME280;17579;42.690;2.586;2023-02-04T01:06:25;98303.94;;;12.95;22.07
30873;BME280;17579;42.690;2.586;2023-02-04T01:08:50;98310.19;;;12.84;22.34
30873;BME280;17579;42.690;2.586;2023-02-04T01:11:17;98321.22;;;12.79;22.14
30873;BME280;17579;42.690;2.586;2023-02-04T01:13:43;98329.56;;;12.75;22.83
30873;BME280;17579;42.690;2.586;2023-02-04T01:16:09;98335.94;;;12.62;23.78
30873;BME280;17579;42.690;2.586;2023-02-04T01:18:35;98323.41;;;12.43;24.82
30873;BME280;17579;42.690;2.586;2023-02-04T01:21:00;98335.16;;;12.29;25.48
30873;BME280;17579;42.690;2.586;2023-02-04T01:23:26;98331.19;;;12.14;25.62
30873;BME280;17579;42.690;2.586;2023-02-04T01:25:51;98327.72;;;12.02;26.70
30873;BME280;17579;42.690;2.586;2023-02-04T01:28:17;98317.50;;;11.86;27.19
30873;BME280;17579;42.690;2.586;2023-02-04T01:30:42;98324.81;;;11.73;28.29
30873;BME280;17579;42.690;2.586;2023-02-04T01:33:08;98311.25;;;11.55;29.20
30873;BME280;17579;42.690;2.586;2023-02-04T01:35:33;98320.47;;;11.39;29.75
30873;BME280;17579;42.690;2.586;2023-02-04T01:37:59;98310.97;;;11.25;30.44
30873;BME280;17579;42.690;2.586;2023-02-04T01:40:24;98299.91;;;11.09;31.18
30873;BME280;17579;42.690;2.586;2023-02-04T01:42:50;98292.00;;;10.98;31.66
30873;BME280;17579;42.690;2.586;2023-02-04T01:45:16;98276.84;;;10.88;31.72
30873;BME280;17579;42.690;2.586;2023-02-04T01:47:43;98279.59;;;10.87;31.63
30873;BME280;17579;42.690;2.586;2023-02-04T01:50:12;98279.84;;;10.84;31.17
30873;BME280;17579;42.690;2.586;2023-02-04T01:52:39;98275.25;;;10.86;31.37
30873;BME280;17579;42.690;2.586;2023-02-04T01:55:12;98284.06;;;10.86;30.83
30873;BME280;17579;42.690;2.586;2023-02-04T01:57:38;98271.41;;;10.90;31.07
30873;BME280;17579;42.690;2.586;2023-02-04T02:00:09;98263.34;;;10.91;30.75
30873;BME280;17579;42.690;2.586;2023-02-04T02:02:44;98257.94;;;10.93;30.26
30873;BME280;17579;42.690;2.586;2023-02-04T02:05:15;98245.75;;;11.02;30.08
30873;BME280;17579;42.690;2.586;2023-02-04T02:07:42;98255.03;;;11.07;29.65
30873;BME280;17579;42.690;2.586;2023-02-04T02:10:10;98258.03;;;11.14;29.02
30873;BME280;17579;42.690;2.586;2023-02-04T02:12:36;98260.53;;;11.27;28.83
30873;BME280;17579;42.690;2.586;2023-02-04T02:15:02;98256.78;;;11.30;29.03
30873;BME280;17579;42.690;2.586;2023-02-04T02:17:28;98262.09;;;11.30;28.47
30873;BME280;17579;42.690;2.586;2023-02-04T02:19:54;98261.97;;;11.31;28.55
30873;BME280;17579;42.690;2.586;2023-02-04T02:22:26;98259.19;;;11.33;28.48
30873;BME280;17579;42.690;2.586;2023-02-04T02:24:53;98258.09;;;11.35;28.68
30873;BME280;17579;42.690;2.586;2023-02-04T02:27:19;98251.94;;;11.35;28.63
30873;BME280;17579;42.690;2.586;2023-02-04T02:29:44;98248.47;;;11.34;28.28
30873;BME280;17579;42.690;2.586;2023-02-04T02:32:11;98250.03;;;11.37;27.74
30873;BME280;17579;42.690;2.586;2023-02-04T02:34:39;98244.22;;;11.43;27.48
30873;BME280;17579;42.690;2.586;2023-02-04T02:37:06;98241.66;;;11.53;26.49
30873;BME280;17579;42.690;2.586;2023-02-04T02:39:34;98245.22;;;11.63;26.04
30873;BME280;17579;42.690;2.586;2023-02-04T02:42:00;98244.06;;;11.77;25.34
30873;BME280;17579;42.690;2.586;2023-02-04T02:44:26;98249.44;;;11.87;24.77
30873;BME280;17579;42.690;2.586;2023-02-04T02:46:52;98256.78;;;11.94;24.60
30873;BME280;17579;42.690;2.586;2023-02-04T02:49:19;98263.38;;;12.00;24.61
30873;BME280;17579;42.690;2.586;2023-02-04T02:51:45;98262.28;;;12.03;24.63
30873;BME280;17579;42.690;2.586;2023-02-04T02:54:30;98259.91;;;12.00;24.72
30873;BME280;17579;42.690;2.586;2023-02-04T02:56:57;98263.13;;;12.03;24.48
30873;BME280;17579;42.690;2.586;2023-02-04T02:59:24;98266.03;;;12.00;24.71
30873;BME280;17579;42.690;2.586;2023-02-04T03:01:53;98273.38;;;11.96;24.87
30873;BME280;17579;42.690;2.586;2023-02-04T03:04:21;98284.13;;;11.95;24.57
30873;BME280;17579;42.690;2.586;2023-02-04T03:06:48;98291.34;;;11.93;24.79
30873;BME280;17579;42.690;2.586;2023-02-04T03:09:14;98290.88;;;11.88;24.85
30873;BME280;17579;42.690;2.586;2023-02-04T03:11:40;98281.63;;;11.82;24.85
30873;BME280;17579;42.690;2.586;2023-02-04T03:14:06;98283.69;;;11.78;25.35
30873;BME280;17579;42.690;2.586;2023-02-04T03:16:33;98274.56;;;11.71;25.41
30873;BME280;17579;42.690;2.586;2023-02-04T03:19:01;98284.72;;;11.66;25.38
30873;BME280;17579;42.690;2.586;2023-02-04T03:21:29;98270.63;;;11.66;24.91
30873;BME280;17579;42.690;2.586;2023-02-04T03:23:55;98278.44;;;11.67;24.73
30873;BME280;17579;42.690;2.586;2023-02-04T03:26:22;98282.91;;;11.67;24.59
30873;BME280;17579;42.690;2.586;2023-02-04T03:28:48;98278.19;;;11.70;24.65
30873;BME280;17579;42.690;2.586;2023-02-04T03:31:14;98269.16;;;11.73;24.56
30873;BME280;17579;42.690;2.586;2023-02-04T03:33:39;98272.50;;;11.75;24.50
30873;BME280;17579;42.690;2.586;2023-02-04T03:36:07;98265.41;;;11.75;24.88
30873;BME280;17579;42.690;2.586;2023-02-04T03:38:32;98263.59;;;11.76;24.79
30873;BME280;17579;42.690;2.586;2023-02-04T03:40:59;98269.84;;;11.75;24.62
30873;BME280;17579;42.690;2.586;2023-02-04T03:43:24;98267.19;;;11.75;24.43
30873;BME280;17579;42.690;2.586;2023-02-04T03:45:50;98276.59;;;11.79;24.37
30873;BME280;17579;42.690;2.586;2023-02-04T03:48:15;98267.53;;;11.82;24.16
30873;BME280;17579;42.690;2.586;2023-02-04T03:50:41;98267.41;;;11.83;24.36
30873;BME280;17579;42.690;2.586;2023-02-04T03:53:07;98268.25;;;11.84;24.22
30873;BME280;17579;42.690;2.586;2023-02-04T03:55:32;98272.59;;;11.85;23.76
30873;BME280;17579;42.690;2.586;2023-02-04T03:57:58;98275.84;;;11.88;23.68
30873;BME280;17579;42.690;2.586;2023-02-04T04:00:23;98265.69;;;11.93;23.40
30873;BME280;17579;42.690;2.586;2023-02-04T04:02:49;98265.91;;;12.02;22.99
30873;BME280;17579;42.690;2.586;2023-02-04T04:05:14;98269.84;;;12.07;22.44
30873;BME280;17579;42.690;2.586;2023-02-04T04:07:40;98275.47;;;12.14;21.93
30873;BME280;17579;42.690;2.586;2023-02-04T04:10:06;98279.28;;;12.21;21.94
30873;BME280;17579;42.690;2.586;2023-02-04T04:12:31;98280.59;;;12.27;21.10
30873;BME280;17579;42.690;2.586;2023-02-04T04:14:57;98282.03;;;12.41;20.52
30873;BME280;17579;42.690;2.586;2023-02-04T04:17:22;98271.34;;;12.52;20.38
30873;BME280;17579;42.690;2.586;2023-02-04T04:19:48;98265.25;;;12.61;19.98
30873;BME280;17579;42.690;2.586;2023-02-04T04:22:14;98266.13;;;12.72;19.83
30873;BME280;17579;42.690;2.586;2023-02-04T04:24:40;98272.47;;;12.80;19.33
30873;BME280;17579;42.690;2.586;2023-02-04T04:27:06;98274.56;;;12.87;19.39
30873;BME280;17579;42.690;2.586;2023-02-04T04:29:31;98274.16;;;12.91;19.15
30873;BME280;17579;42.690;2.586;2023-02-04T04:31:57;98275.56;;;12.95;18.95
30873;BME280;17579;42.690;2.586;2023-02-04T04:34:22;98278.53;;;13.02;18.45
30873;BME280;17579;42.690;2.586;2023-02-04T04:36:48;98277.16;;;13.08;18.55
30873;BME280;17579;42.690;2.586;2023-02-04T04:39:13;98268.63;;;13.14;17.92
30873;BME280;17579;42.690;2.586;2023-02-04T04:41:39;98280.13;;;13.24;17.93
30873;BME280;17579;42.690;2.586;2023-02-04T04:44:04;98281.25;;;13.31;17.67
30873;BME280;17579;42.690;2.586;2023-02-04T04:46:30;98288.88;;;13.36;17.61
30873;BME280;17579;42.690;2.586;2023-02-04T04:48:56;98287.44;;;13.32;18.04
30873;BME280;17579;42.690;2.586;2023-02-04T04:51:21;98279.56;;;13.21;18.19
30873;BME280;17579;42.690;2.586;2023-02-04T04:53:47;98282.47;;;13.08;18.40
30873;BME280;17579;42.690;2.586;2023-02-04T04:56:12;98277.81;;;13.00;18.65
30873;BME280;17579;42.690;2.586;2023-02-04T04:58:38;98281.16;;;12.92;18.84
30873;BME280;17579;42.690;2.586;2023-02-04T05:01:03;98281.56;;;12.88;18.47
30873;BME280;17579;42.690;2.586;2023-02-04T05:03:29;98267.31;;;12.89;18.48
30873;BME280;17579;42.690;2.586;2023-02-04T05:05:54;98271.38;;;12.93;18.08
30873;BME280;17579;42.690;2.586;2023-02-04T05:08:20;98268.88;;;13.01;17.95
30873;BME280;17579;42.690;2.586;2023-02-04T05:10:45;98261.22;;;13.08;17.85
30873;BME280;17579;42.690;2.586;2023-02-04T05:13:11;98263.31;;;13.14;17.78
30873;BME280;17579;42.690;2.586;2023-02-04T05:15:37;98250.75;;;13.16;17.62
30873;BME280;17579;42.690;2.586;2023-02-04T05:18:02;98258.31;;;13.21;17.07
30873;BME280;17579;42.690;2.586;2023-02-04T05:20:28;98247.28;;;13.25;17.31
30873;BME280;17579;42.690;2.586;2023-02-04T05:22:54;98246.03;;;13.29;17.20
30873;BME280;17579;42.690;2.586;2023-02-04T05:25:21;98238.50;;;13.34;17.17
30873;BME280;17579;42.690;2.586;2023-02-04T05:27:47;98234.72;;;13.37;17.05
30873;BME280;17579;42.690;2.586;2023-02-04T05:30:13;98228.97;;;13.42;16.82
30873;BME280;17579;42.690;2.586;2023-02-04T05:32:39;98230.13;;;13.49;16.85
30873;BME280;17579;42.690;2.586;2023-02-04T05:35:05;98221.44;;;13.57;16.43
30873;BME280;17579;42.690;2.586;2023-02-04T05:37:30;98227.88;;;13.64;16.42
30873;BME280;17579;42.690;2.586;2023-02-04T05:39:56;98209.97;;;13.66;16.45
30873;BME280;17579;42.690;2.586;2023-02-04T05:42:22;98220.31;;;13.69;16.33
30873;BME280;17579;42.690;2.586;2023-02-04T05:44:47;98227.31;;;13.70;16.16
30873;BME280;17579;42.690;2.586;2023-02-04T05:47:13;98207.59;;;13.73;16.42
30873;BME280;17579;42.690;2.586;2023-02-04T05:49:39;98217.25;;;13.74;16.11
30873;BME280;17579;42.690;2.586;2023-02-04T05:52:05;98212.75;;;13.74;16.05
30873;BME280;17579;42.690;2.586;2023-02-04T05:54:31;98211.78;;;13.75;16.47
30873;BME280;17579;42.690;2.586;2023-02-04T05:56:56;98226.19;;;13.73;16.25
30873;BME280;17579;42.690;2.586;2023-02-04T05:59:22;98213.34;;;13.68;16.29
30873;BME280;17579;42.690;2.586;2023-02-04T06:01:47;98226.78;;;13.66;16.23
30873;BME280;17579;42.690;2.586;2023-02-04T06:04:13;98233.34;;;13.62;16.42
30873;BME280;17579;42.690;2.586;2023-02-04T06:06:41;98234.75;;;13.57;16.47
30873;BME280;17579;42.690;2.586;2023-02-04T06:09:06;98225.50;;;13.51;16.84
30873;BME280;17579;42.690;2.586;2023-02-04T06:11:32;98230.13;;;13.49;16.71
30873;BME280;17579;42.690;2.586;2023-02-04T06:13:58;98230.13;;;13.49;16.73
30873;BME280;17579;42.690;2.586;2023-02-04T06:16:24;98234.59;;;13.48;16.75
30873;BME280;17579;42.690;2.586;2023-02-04T06:18:50;98237.38;;;13.47;17.17
30873;BME280;17579;42.690;2.586;2023-02-04T06:21:15;98236.41;;;13.38;18.14
30873;BME280;17579;42.690;2.586;2023-02-04T06:23:41;98233.69;;;13.28;17.96
30873;BME280;17579;42.690;2.586;2023-02-04T06:26:06;98238.16;;;13.18;18.00
30873;BME280;17579;42.690;2.586;2023-02-04T06:28:32;98239.84;;;13.09;18.52
30873;BME280;17579;42.690;2.586;2023-02-04T06:30:57;98239.53;;;13.03;18.82
30873;BME280;17579;42.690;2.586;2023-02-04T06:33:23;98258.22;;;12.91;20.22
30873;BME280;17579;42.690;2.586;2023-02-04T06:35:49;98243.66;;;12.76;20.38
30873;BME280;17579;42.690;2.586;2023-02-04T06:38:15;98255.78;;;12.69;20.01
30873;BME280;17579;42.690;2.586;2023-02-04T06:40:41;98254.66;;;12.61;20.27
30873;BME280;17579;42.690;2.586;2023-02-04T06:43:06;98255.28;;;12.54;20.68
30873;BME280;17579;42.690;2.586;2023-02-04T06:45:32;98244.38;;;12.47;20.62
30873;BME280;17579;42.690;2.586;2023-02-04T06:47:58;98247.16;;;12.45;20.54
30873;BME280;17579;42.690;2.586;2023-02-04T06:50:23;98242.25;;;12.41;20.83
30873;BME280;17579;42.690;2.586;2023-02-04T06:52:49;98246.00;;;12.38;21.13
30873;BME280;17579;42.690;2.586;2023-02-04T06:55:15;98233.13;;;12.34;21.36
30873;BME280;17579;42.690;2.586;2023-02-04T06:57:41;98238.25;;;12.25;21.71
30873;BME280;17579;42.690;2.586;2023-02-04T07:00:09;98238.22;;;12.16;22.03
30873;BME280;17579;42.690;2.586;2023-02-04T07:02:35;98246.94;;;12.06;22.35
30873;BME280;17579;42.690;2.586;2023-02-04T07:05:02;98241.34;;;12.00;22.39
30873;BME280;17579;42.690;2.586;2023-02-04T07:07:28;98239.91;;;11.95;22.15
30873;BME280;17579;42.690;2.586;2023-02-04T07:09:54;98229.44;;;11.94;22.28
30873;BME280;17579;42.690;2.586;2023-02-04T07:12:19;98229.66;;;11.91;22.06
30873;BME280;17579;42.690;2.586;2023-02-04T07:14:45;98233.75;;;11.95;21.83
30873;BME280;17579;42.690;2.586;2023-02-04T07:17:10;98235.03;;;12.01;21.69
30873;BME280;17579;42.690;2.586;2023-02-04T07:19:36;98233.69;;;12.06;21.71
30873;BME280;17579;42.690;2.586;2023-02-04T07:22:02;98241.97;;;12.13;21.38
30873;BME280;17579;42.690;2.586;2023-02-04T07:24:28;98260.00;;;12.19;21.17
30873;BME280;17579;42.690;2.586;2023-02-04T07:26:53;98262.38;;;12.22;21.28
30873;BME280;17579;42.690;2.586;2023-02-04T07:29:19;98270.09;;;12.25;21.34
30873;BME280;17579;42.690;2.586;2023-02-04T07:31:45;98274.88;;;12.32;20.96
30873;BME280;17579;42.690;2.586;2023-02-04T07:34:13;98272.94;;;12.34;21.13
30873;BME280;17579;42.690;2.586;2023-02-04T07:36:39;98271.00;;;12.36;20.78
30873;BME280;17579;42.690;2.586;2023-02-04T07:39:05;98286.38;;;12.42;20.71
30873;BME280;17579;42.690;2.586;2023-02-04T07:41:31;98292.03;;;12.48;20.61
30873;BME280;17579;42.690;2.586;2023-02-04T07:43:56;98288.00;;;12.54;20.51
30873;BME280;17579;42.690;2.586;2023-02-04T07:46:22;98297.34;;;12.58;20.29
30873;BME280;17579;42.690;2.586;2023-02-04T07:48:47;98304.09;;;12.62;20.64
30873;BME280;17579;42.690;2.586;2023-02-04T07:51:13;98306.38;;;12.67;20.59
30873;BME280;17579;42.690;2.586;2023-02-04T07:53:38;98299.09;;;12.69;20.91
30873;BME280;17579;42.690;2.586;2023-02-04T07:56:04;98294.75;;;12.68;20.77
30873;BME280;17579;42.690;2.586;2023-02-04T07:58:30;98295.03;;;12.65;21.06
30873;BME280;17579;42.690;2.586;2023-02-04T08:00:55;98285.38;;;12.64;21.22
30873;BME280;17579;42.690;2.586;2023-02-04T08:03:21;98282.97;;;12.61;21.31
30873;BME280;17579;42.690;2.586;2023-02-04T08:05:46;98277.81;;;12.59;21.30
30873;BME280;17579;42.690;2.586;2023-02-04T08:08:12;98279.63;;;12.59;21.55
30873;BME280;17579;42.690;2.586;2023-02-04T08:10:37;98270.81;;;12.58;21.47
30873;BME280;17579;42.690;2.586;2023-02-04T08:13:03;98268.16;;;12.58;21.68
30873;BME280;17579;42.690;2.586;2023-02-04T08:15:28;98264.53;;;12.59;21.68
30873;BME280;17579;42.690;2.586;2023-02-04T08:17:54;98265.25;;;12.61;21.68
30873;BME280;17579;42.690;2.586;2023-02-04T08:20:19;98261.47;;;12.64;21.69
30873;BME280;17579;42.690;2.586;2023-02-04T08:22:45;98254.81;;;12.70;21.54
30873;BME280;17579;42.690;2.586;2023-02-04T08:25:11;98260.56;;;12.75;21.45
30873;BME280;17579;42.690;2.586;2023-02-04T08:27:37;98252.91;;;12.81;20.96
30873;BME280;17579;42.690;2.586;2023-02-04T08:30:03;98241.59;;;12.89;20.88
30873;BME280;17579;42.690;2.586;2023-02-04T08:32:29;98242.31;;;13.01;20.10
30873;BME280;17579;42.690;2.586;2023-02-04T08:34:56;98232.28;;;13.14;19.91
30873;BME280;17579;42.690;2.586;2023-02-04T08:37:22;98235.38;;;13.29;19.36
30873;BME280;17579;42.690;2.586;2023-02-04T08:39:47;98226.22;;;13.43;19.44
30873;BME280;17579;42.690;2.586;2023-02-04T08:42:14;98232.09;;;13.57;19.30
30873;BME280;17579;42.690;2.586;2023-02-04T08:44:40;98232.78;;;13.68;19.24
30873;BME280;17579;42.690;2.586;2023-02-04T08:47:06;98220.16;;;13.80;19.03
30873;BME280;17579;42.690;2.586;2023-02-04T08:49:32;98220.88;;;13.92;18.72
30873;BME280;17579;42.690;2.586;2023-02-04T08:51:57;98217.47;;;14.00;20.01
30873;BME280;17579;42.690;2.586;2023-02-04T08:54:23;98210.78;;;13.86;21.06
30873;BME280;17579;42.690;2.586;2023-02-04T08:56:50;98201.31;;;13.64;21.39
30873;BME280;17579;42.690;2.586;2023-02-04T08:59:16;98185.34;;;13.54;21.35
30873;BME280;17579;42.690;2.586;2023-02-04T09:01:41;98185.50;;;13.52;21.00
30873;BME280;17579;42.690;2.586;2023-02-04T09:04:07;98169.53;;;13.62;18.69
30873;BME280;17579;42.690;2.586;2023-02-04T09:06:36;98167.53;;;13.84;18.38
30873;BME280;17579;42.690;2.586;2023-02-04T09:09:02;98162.72;;;14.07;17.93
30873;BME280;17579;42.690;2.586;2023-02-04T09:11:27;98164.72;;;14.33;16.77
30873;BME280;17579;42.690;2.586;2023-02-04T09:13:53;98160.16;;;14.53;16.10
30873;BME280;17579;42.690;2.586;2023-02-04T09:16:20;98164.03;;;14.68;15.90
30873;BME280;17579;42.690;2.586;2023-02-04T09:18:46;98159.84;;;14.84;15.16
30873;BME280;17579;42.690;2.586;2023-02-04T09:21:11;98160.88;;;15.01;15.01
30873;BME280;17579;42.690;2.586;2023-02-04T09:23:37;98161.38;;;15.14;14.59
30873;BME280;17579;42.690;2.586;2023-02-04T09:26:03;98178.78;;;15.27;14.28
30873;BME280;17579;42.690;2.586;2023-02-04T09:28:31;98181.53;;;15.35;14.28
30873;BME280;17579;42.690;2.586;2023-02-04T09:30:56;98196.09;;;15.40;14.52
30873;BME280;17579;42.690;2.586;2023-02-04T09:33:22;98192.94;;;15.45;14.56
30873;BME280;17579;42.690;2.586;2023-02-04T09:35:48;98196.84;;;15.51;14.53
30873;BME280;17579;42.690;2.586;2023-02-04T09:38:14;98201.38;;;15.58;14.63
30873;BME280;17579;42.690;2.586;2023-02-04T09:40:42;98204.91;;;15.59;14.73
30873;BME280;17579;42.690;2.586;2023-02-04T09:43:12;98220.06;;;15.58;15.22
30873;BME280;17579;42.690;2.586;2023-02-04T09:45:41;98213.28;;;15.64;15.00
30873;BME280;17579;42.690;2.586;2023-02-04T09:48:10;98238.44;;;15.62;15.23
30873;BME280;17579;42.690;2.586;2023-02-04T09:50:38;98233.94;;;15.62;15.36
30873;BME280;17579;42.690;2.586;2023-02-04T09:53:05;98242.25;;;15.59;15.72
30873;BME280;17579;42.690;2.586;2023-02-04T09:55:34;98235.38;;;15.56;16.27
30873;BME280;17579;42.690;2.586;2023-02-04T09:58:02;98239.88;;;15.56;16.39
30873;BME280;17579;42.690;2.586;2023-02-04T10:00:29;98230.50;;;15.52;16.59
30873;BME280;17579;42.690;2.586;2023-02-04T10:02:57;98236.97;;;15.49;16.85
30873;BME280;17579;42.690;2.586;2023-02-04T10:05:28;98244.59;;;15.44;17.89
30873;BME280;17579;42.690;2.586;2023-02-04T10:07:55;98233.47;;;15.31;19.11
30873;BME280;17579;42.690;2.586;2023-02-04T10:10:22;98235.28;;;15.12;19.20
30873;BME280;17579;42.690;2.586;2023-02-04T10:12:52;98233.66;;;15.01;18.72
30873;BME280;17579;42.690;2.586;2023-02-04T10:15:19;98232.50;;;15.04;18.75
30873;BME280;17579;42.690;2.586;2023-02-04T10:17:49;98230.53;;;15.06;18.22
30873;BME280;17579;42.690;2.586;2023-02-04T10:20:17;98245.94;;;15.12;18.50
30873;BME280;17579;42.690;2.586;2023-02-04T10:22:44;98251.09;;;15.14;19.15
30873;BME280;17579;42.690;2.586;2023-02-04T10:25:15;98248.75;;;15.11;19.13
30873;BME280;17579;42.690;2.586;2023-02-04T10:30:17;98242.63;;;15.00;19.60
30873;BME280;17579;42.690;2.586;2023-02-04T10:32:43;98247.97;;;15.00;20.25
30873;BME280;17579;42.690;2.586;2023-02-04T10:35:13;98249.91;;;14.98;20.03
30873;BME280;17579;42.690;2.586;2023-02-04T10:37:39;98254.28;;;14.99;20.25
30873;BME280;17579;42.690;2.586;2023-02-04T10:40:04;98248.13;;;14.99;20.36
30873;BME280;17579;42.690;2.586;2023-02-04T10:42:30;98253.97;;;15.02;20.62
30873;BME280;17579;42.690;2.586;2023-02-04T10:44:57;98254.97;;;15.01;20.50
30873;BME280;17579;42.690;2.586;2023-02-04T10:47:25;98253.44;;;14.99;20.61
30873;BME280;17579;42.690;2.586;2023-02-04T10:50:03;98258.66;;;14.90;20.97
30873;BME280;17579;42.690;2.586;2023-02-04T10:52:38;98254.63;;;14.86;21.14
30873;BME280;17579;42.690;2.586;2023-02-04T10:55:09;98255.75;;;14.84;21.11
30873;BME280;17579;42.690;2.586;2023-02-04T10:57:37;98250.00;;;14.88;21.28
30873;BME280;17579;42.690;2.586;2023-02-04T11:00:06;98245.78;;;14.86;21.57
30873;BME280;17579;42.690;2.586;2023-02-04T11:05:23;98258.56;;;14.82;22.45
30873;BME280;17579;42.690;2.586;2023-02-04T11:07:49;98248.47;;;14.86;22.61
30873;BME280;17579;42.690;2.586;2023-02-04T11:10:18;98229.97;;;14.84;22.70
30873;BME280;17579;42.690;2.586;2023-02-04T11:13:02;98226.91;;;14.79;22.70
30873;BME280;17579;42.690;2.586;2023-02-04T11:20:29;98238.34;;;14.89;24.21
30873;BME280;17579;42.690;2.586;2023-02-04T11:22:55;98222.75;;;14.95;24.27
30873;BME280;17579;42.690;2.586;2023-02-04T11:27:48;98216.78;;;15.11;23.97
30873;BME280;17579;42.690;2.586;2023-02-04T11:30:20;98215.63;;;15.13;23.65
30873;BME280;17579;42.690;2.586;2023-02-04T11:33:00;98211.06;;;15.23;23.43
30873;BME280;17579;42.690;2.586;2023-02-04T11:35:27;98228.53;;;15.36;23.72
30873;BME280;17579;42.690;2.586;2023-02-04T11:37:54;98211.47;;;15.47;23.19
30873;BME280;17579;42.690;2.586;2023-02-04T11:40:22;98213.91;;;15.58;23.36
30873;BME280;17579;42.690;2.586;2023-02-04T11:42:49;98189.13;;;15.66;23.55
30873;BME280;17579;42.690;2.586;2023-02-04T11:45:24;98203.34;;;15.74;22.98
30873;BME280;17579;42.690;2.586;2023-02-04T11:47:51;98193.31;;;15.86;23.03
30873;BME280;17579;42.690;2.586;2023-02-04T11:50:28;98186.22;;;15.95;22.67
30873;BME280;17579;42.690;2.586;2023-02-04T11:52:56;98180.63;;;16.06;22.40
30873;BME280;17579;42.690;2.586;2023-02-04T11:55:22;98186.13;;;16.13;22.44
30873;BME280;17579;42.690;2.586;2023-02-04T11:57:51;98184.84;;;16.17;22.44
30873;BME280;17579;42.690;2.586;2023-02-04T12:00:20;98188.94;;;16.30;22.01
30873;BME280;17579;42.690;2.586;2023-02-04T12:02:49;98186.47;;;16.44;21.97
30873;BME280;17579;42.690;2.586;2023-02-04T12:05:18;98184.22;;;16.58;21.86
30873;BME280;17579;42.690;2.586;2023-02-04T12:07:45;98193.13;;;16.67;21.63
30873;BME280;17579;42.690;2.586;2023-02-04T12:10:14;98179.09;;;16.73;21.55
30873;BME280;17579;42.690;2.586;2023-02-04T12:12:42;98180.63;;;16.75;21.10
30873;BME280;17579;42.690;2.586;2023-02-04T12:15:15;98171.13;;;16.81;21.02
30873;BME280;17579;42.690;2.586;2023-02-04T12:20:08;98171.28;;;16.79;20.90
30873;BME280;17579;42.690;2.586;2023-02-04T12:22:34;98173.78;;;16.81;20.77
30873;BME280;17579;42.690;2.586;2023-02-04T12:24:59;98161.50;;;16.88;20.15
30873;BME280;17579;42.690;2.586;2023-02-04T12:27:25;98161.81;;;16.93;20.04
30873;BME280;17579;42.690;2.586;2023-02-04T12:29:50;98162.50;;;16.95;20.38
30873;BME280;17579;42.690;2.586;2023-02-04T12:32:16;98159.16;;;16.93;20.33
30873;BME280;17579;42.690;2.586;2023-02-04T12:34:42;98159.31;;;16.92;20.58
30873;BME280;17579;42.690;2.586;2023-02-04T12:37:07;98154.97;;;16.91;20.24
30873;BME280;17579;42.690;2.586;2023-02-04T12:39:33;98150.47;;;16.91;20.39
30873;BME280;17579;42.690;2.586;2023-02-04T12:41:58;98137.75;;;16.93;19.83
30873;BME280;17579;42.690;2.586;2023-02-04T12:44:24;98141.59;;;16.91;19.52
30873;BME280;17579;42.690;2.586;2023-02-04T12:46:49;98130.09;;;16.90;19.59
30873;BME280;17579;42.690;2.586;2023-02-04T12:49:15;98128.41;;;16.89;20.16
30873;BME280;17579;42.690;2.586;2023-02-04T12:51:41;98131.25;;;16.88;19.80
30873;BME280;17579;42.690;2.586;2023-02-04T12:54:06;98139.94;;;16.90;19.98
30873;BME280;17579;42.690;2.586;2023-02-04T12:56:32;98120.69;;;16.86;19.82
30873;BME280;17579;42.690;2.586;2023-02-04T12:58:57;98140.78;;;16.90;19.32
30873;BME280;17579;42.690;2.586;2023-02-04T13:01:23;98123.41;;;16.94;19.34
30873;BME280;17579;42.690;2.586;2023-02-04T13:03:49;98108.72;;;16.99;19.55
30873;BME280;17579;42.690;2.586;2023-02-04T13:06:14;98117.56;;;16.99;20.01
30873;BME280;17579;42.690;2.586;2023-02-04T13:08:41;98118.25;;;17.01;19.69
30873;BME280;17579;42.690;2.586;2023-02-04T13:11:06;98131.09;;;16.97;20.19